sensor_id;sensor_type;location;lat;lon;timestamp;P1;durP1;ratioP1;P2;durP2;ratioP2
60641;SDS011;46837;52.446;-1.930;2022-07-23T00:00:07;23.04;;;14.08;;
60641;SDS011;46837;52.446;-1.930;2022-07-23T00:01:07;14.92;;;12.88;;
60641;SDS011;46837;52.446;-1.930;2022-07-23T00:02:07;14.34;;;12.62;;
60641;SDS011;46837;52.446;-1.930;2022-07-23T00:03:07;18.96;;;16.08;;
60641;SDS011;46837;52.446;-1.930;2022-07-23T00:04:07;17.34;;;13.90;;
60641;SDS011;46837;52.446;-1.930;2022-07-23T00:05:07;14.74;;;13.08;;
60641;SDS011;46837;52.446;-1.930;2022-07-23T00:06:07;19.08;;;13.44;;
60641;SDS011;46837;52.446;-1.930;2022-07-23T00:07:07;22.42;;;14.24;;
60641;SDS011;46837;52.446;-1.930;2022-07-23T00:08:07;16.44;;;14.76;;
60641;SDS011;46837;52.446;-1.930;2022-07-23T00:09:07;18.92;;;13.18;;
60641;SDS011;46837;52.446;-1.930;2022-07-23T00:10:07;19.22;;;14.40;;
60641;SDS011;46837;52.446;-1.930;2022-07-23T00:11:07;23.80;;;14.76;;
60641;SDS011;46837;52.446;-1.930;2022-07-23T00:12:07;19.98;;;14.14;;
60641;SDS011;46837;52.446;-1.930;2022-07-23T00:13:07;22.04;;;13.44;;
60641;SDS011;46837;52.446;-1.930;2022-07-23T00:14:07;15.50;;;13.16;;
60641;SDS011;46837;52.446;-1.930;2022-07-23T00:15:07;20.20;;;13.92;;
60641;SDS011;46837;52.446;-1.930;2022-07-23T00:16:07;20.22;;;15.86;;
60641;SDS011;46837;52.446;-1.930;2022-07-23T00:17:07;23.24;;;15.00;;
60641;SDS011;46837;52.446;-1.930;2022-07-23T00:18:07;21.28;;;14.98;;
60641;SDS011;46837;52.446;-1.930;2022-07-23T00:19:07;14.14;;;12.66;;
60641;SDS011;46837;52.446;-1.930;2022-07-23T00:20:07;15.96;;;14.32;;
60641;SDS011;46837;52.446;-1.930;2022-07-23T00:21:07;19.10;;;14.46;;
60641;SDS011;46837;52.446;-1.930;2022-07-23T00:22:07;17.16;;;14.00;;
60641;SDS011;46837;52.446;-1.930;2022-07-23T00:23:07;21.30;;;15.24;;
60641;SDS011;46837;52.446;-1.930;2022-07-23T00:24:07;20.18;;;15.00;;
60641;SDS011;46837;52.446;-1.930;2022-07-23T00:25:07;20.00;;;14.96;;
60641;SDS011;46837;52.446;-1.930;2022-07-23T00:26:08;20.74;;;15.40;;
60641;SDS011;46837;52.446;-1.930;2022-07-23T00:27:07;16.06;;;13.26;;
60641;SDS011;46837;52.446;-1.930;2022-07-23T00:28:07;23.62;;;16.54;;
60641;SDS011;46837;52.446;-1.930;2022-07-23T00:29:07;22.92;;;16.56;;
60641;SDS011;46837;52.446;-1.930;2022-07-23T00:30:07;19.48;;;15.00;;
60641;SDS011;46837;52.446;-1.930;2022-07-23T00:31:07;21.02;;;14.58;;
60641;SDS011;46837;52.446;-1.930;2022-07-23T00:32:07;18.80;;;15.46;;
60641;SDS011;46837;52.446;-1.930;2022-07-23T00:33:07;17.10;;;14.00;;
60641;SDS011;46837;52.446;-1.930;2022-07-23T00:34:07;23.56;;;15.58;;
60641;SDS011;46837;52.446;-1.930;2022-07-23T00:35:07;18.34;;;15.56;;
60641;SDS011;46837;52.446;-1.930;2022-07-23T00:36:07;18.12;;;13.32;;
60641;SDS011;46837;52.446;-1.930;2022-07-23T00:37:07;23.24;;;16.98;;
60641;SDS011;46837;52.446;-1.930;2022-07-23T00:38:07;17.12;;;15.28;;
60641;SDS011;46837;52.446;-1.930;2022-07-23T00:39:07;17.92;;;15.56;;
60641;SDS011;46837;52.446;-1.930;2022-07-23T00:40:07;17.32;;;15.04;;
60641;SDS011;46837;52.446;-1.930;2022-07-23T00:41:07;21.58;;;14.60;;
60641;SDS011;46837;52.446;-1.930;2022-07-23T00:42:07;17.42;;;15.46;;
60641;SDS011;46837;52.446;-1.930;2022-07-23T00:43:07;22.58;;;18.06;;
60641;SDS011;46837;52.446;-1.930;2022-07-23T00:45:07;21.78;;;17.38;;
60641;SDS011;46837;52.446;-1.930;2022-07-23T00:46:07;24.52;;;17.70;;
60641;SDS011;46837;52.446;-1.930;2022-07-23T00:47:07;21.54;;;17.52;;
60641;SDS011;46837;52.446;-1.930;2022-07-23T00:48:07;16.28;;;13.42;;
60641;SDS011;46837;52.446;-1.930;2022-07-23T00:49:07;19.98;;;17.52;;
60641;SDS011;46837;52.446;-1.930;2022-07-23T00:50:07;18.82;;;16.76;;
60641;SDS011;46837;52.446;-1.930;2022-07-23T00:51:07;21.14;;;18.44;;
60641;SDS011;46837;52.446;-1.930;2022-07-23T00:52:07;17.00;;;15.12;;
60641;SDS011;46837;52.446;-1.930;2022-07-23T00:53:07;18.24;;;15.96;;
60641;SDS011;46837;52.446;-1.930;2022-07-23T00:54:07;19.96;;;17.84;;
60641;SDS011;46837;52.446;-1.930;2022-07-23T00:55:07;23.78;;;17.58;;
60641;SDS011;46837;52.446;-1.930;2022-07-23T00:56:07;29.00;;;19.48;;
60641;SDS011;46837;52.446;-1.930;2022-07-23T00:57:07;19.36;;;16.92;;
60641;SDS011;46837;52.446;-1.930;2022-07-23T00:58:07;23.88;;;18.76;;
60641;SDS011;46837;52.446;-1.930;2022-07-23T00:59:07;20.44;;;17.88;;
60641;SDS011;46837;52.446;-1.930;2022-07-23T01:00:08;20.20;;;18.12;;
60641;SDS011;46837;52.446;-1.930;2022-07-23T01:01:07;22.54;;;17.80;;
60641;SDS011;46837;52.446;-1.930;2022-07-23T01:02:07;22.04;;;16.14;;
60641;SDS011;46837;52.446;-1.930;2022-07-23T01:03:07;29.24;;;18.68;;
60641;SDS011;46837;52.446;-1.930;2022-07-23T01:04:07;23.10;;;15.86;;
60641;SDS011;46837;52.446;-1.930;2022-07-23T01:05:07;24.36;;;19.16;;
60641;SDS011;46837;52.446;-1.930;2022-07-23T01:06:07;21.84;;;17.48;;
60641;SDS011;46837;52.446;-1.930;2022-07-23T01:07:07;20.86;;;16.14;;
60641;SDS011;46837;52.446;-1.930;2022-07-23T01:08:07;23.36;;;16.78;;
60641;SDS011;46837;52.446;-1.930;2022-07-23T01:09:07;21.52;;;17.62;;
60641;SDS011;46837;52.446;-1.930;2022-07-23T01:10:11;20.52;;;14.82;;
60641;SDS011;46837;52.446;-1.930;2022-07-23T01:11:07;20.40;;;14.92;;
60641;SDS011;46837;52.446;-1.930;2022-07-23T01:12:07;15.88;;;13.76;;
60641;SDS011;46837;52.446;-1.930;2022-07-23T01:13:08;15.88;;;12.96;;
60641;SDS011;46837;52.446;-1.930;2022-07-23T01:14:07;17.60;;;12.40;;
60641;SDS011;46837;52.446;-1.930;2022-07-23T01:15:07;13.28;;;11.94;;
60641;SDS011;46837;52.446;-1.930;2022-07-23T01:16:07;19.08;;;14.18;;
60641;SDS011;46837;52.446;-1.930;2022-07-23T01:17:07;18.10;;;11.74;;
60641;SDS011;46837;52.446;-1.930;2022-07-23T01:18:07;19.86;;;15.26;;
60641;SDS011;46837;52.446;-1.930;2022-07-23T01:19:07;22.88;;;13.52;;
60641;SDS011;46837;52.446;-1.930;2022-07-23T01:20:07;19.04;;;12.90;;
60641;SDS011;46837;52.446;-1.930;2022-07-23T01:21:07;14.26;;;10.94;;
60641;SDS011;46837;52.446;-1.930;2022-07-23T01:22:07;12.34;;;10.56;;
60641;SDS011;46837;52.446;-1.930;2022-07-23T01:23:07;17.08;;;12.04;;
60641;SDS011;46837;52.446;-1.930;2022-07-23T01:24:07;17.08;;;11.88;;
60641;SDS011;46837;52.446;-1.930;2022-07-23T01:25:07;19.94;;;13.94;;
60641;SDS011;46837;52.446;-1.930;2022-07-23T01:26:07;12.18;;;10.98;;
60641;SDS011;46837;52.446;-1.930;2022-07-23T01:27:07;14.12;;;11.64;;
60641;SDS011;46837;52.446;-1.930;2022-07-23T01:28:07;14.36;;;12.40;;
60641;SDS011;46837;52.446;-1.930;2022-07-23T01:29:07;13.74;;;10.98;;
60641;SDS011;46837;52.446;-1.930;2022-07-23T01:30:07;16.36;;;12.62;;
60641;SDS011;46837;52.446;-1.930;2022-07-23T01:31:07;15.96;;;11.16;;
60641;SDS011;46837;52.446;-1.930;2022-07-23T01:32:07;12.84;;;11.44;;
60641;SDS011;46837;52.446;-1.930;2022-07-23T01:33:07;14.50;;;11.16;;
60641;SDS011;46837;52.446;-1.930;2022-07-23T01:34:07;16.20;;;11.82;;
60641;SDS011;46837;52.446;-1.930;2022-07-23T01:35:07;18.60;;;12.98;;
60641;SDS011;46837;52.446;-1.930;2022-07-23T01:36:07;17.26;;;12.66;;
60641;SDS011;46837;52.446;-1.930;2022-07-23T01:37:07;17.56;;;12.42;;
60641;SDS011;46837;52.446;-1.930;2022-07-23T01:38:07;14.70;;;11.62;;
60641;SDS011;46837;52.446;-1.930;2022-07-23T01:39:07;13.82;;;12.38;;
60641;SDS011;46837;52.446;-1.930;2022-07-23T01:40:07;17.38;;;11.84;;
60641;SDS011;46837;52.446;-1.930;2022-07-23T01:41:07;18.16;;;11.84;;
60641;SDS011;46837;52.446;-1.930;2022-07-23T01:42:07;19.16;;;13.16;;
60641;SDS011;46837;52.446;-1.930;2022-07-23T01:43:07;14.72;;;11.16;;
60641;SDS011;46837;52.446;-1.930;2022-07-23T01:44:07;18.04;;;11.76;;
60641;SDS011;46837;52.446;-1.930;2022-07-23T01:45:07;13.52;;;10.92;;
60641;SDS011;46837;52.446;-1.930;2022-07-23T01:46:07;14.90;;;11.56;;
60641;SDS011;46837;52.446;-1.930;2022-07-23T01:47:07;14.80;;;12.54;;
60641;SDS011;46837;52.446;-1.930;2022-07-23T01:48:07;12.62;;;11.12;;
60641;SDS011;46837;52.446;-1.930;2022-07-23T01:49:07;12.78;;;11.10;;
60641;SDS011;46837;52.446;-1.930;2022-07-23T01:50:07;17.48;;;12.14;;
60641;SDS011;46837;52.446;-1.930;2022-07-23T01:51:07;16.80;;;12.24;;
60641;SDS011;46837;52.446;-1.930;2022-07-23T01:52:09;18.06;;;14.16;;
60641;SDS011;46837;52.446;-1.930;2022-07-23T01:53:07;15.88;;;12.72;;
60641;SDS011;46837;52.446;-1.930;2022-07-23T01:54:07;15.60;;;12.72;;
60641;SDS011;46837;52.446;-1.930;2022-07-23T01:55:07;17.44;;;14.26;;
60641;SDS011;46837;52.446;-1.930;2022-07-23T01:56:07;16.94;;;12.00;;
60641;SDS011;46837;52.446;-1.930;2022-07-23T01:57:07;17.54;;;13.86;;
60641;SDS011;46837;52.446;-1.930;2022-07-23T01:58:07;18.22;;;14.20;;
60641;SDS011;46837;52.446;-1.930;2022-07-23T01:59:07;20.66;;;13.62;;
60641;SDS011;46837;52.446;-1.930;2022-07-23T02:00:07;21.18;;;15.10;;
60641;SDS011;46837;52.446;-1.930;2022-07-23T02:01:07;18.04;;;12.52;;
60641;SDS011;46837;52.446;-1.930;2022-07-23T02:02:07;16.68;;;13.46;;
60641;SDS011;46837;52.446;-1.930;2022-07-23T02:03:07;15.64;;;12.08;;
60641;SDS011;46837;52.446;-1.930;2022-07-23T02:04:07;15.52;;;10.00;;
60641;SDS011;46837;52.446;-1.930;2022-07-23T02:05:07;17.74;;;10.92;;
60641;SDS011;46837;52.446;-1.930;2022-07-23T02:06:07;16.70;;;9.00;;
60641;SDS011;46837;52.446;-1.930;2022-07-23T02:07:07;10.64;;;8.52;;
60641;SDS011;46837;52.446;-1.930;2022-07-23T02:08:07;17.72;;;10.82;;
60641;SDS011;46837;52.446;-1.930;2022-07-23T02:09:07;11.86;;;9.16;;
60641;SDS011;46837;52.446;-1.930;2022-07-23T02:10:07;15.24;;;9.94;;
60641;SDS011;46837;52.446;-1.930;2022-07-23T02:11:07;12.78;;;10.10;;
60641;SDS011;46837;52.446;-1.930;2022-07-23T02:12:07;12.92;;;9.42;;
60641;SDS011;46837;52.446;-1.930;2022-07-23T02:13:07;16.78;;;9.58;;
60641;SDS011;46837;52.446;-1.930;2022-07-23T02:14:07;11.12;;;8.84;;
60641;SDS011;46837;52.446;-1.930;2022-07-23T02:15:07;12.82;;;9.92;;
60641;SDS011;46837;52.446;-1.930;2022-07-23T02:16:07;12.70;;;9.30;;
60641;SDS011;46837;52.446;-1.930;2022-07-23T02:17:07;14.34;;;9.36;;
60641;SDS011;46837;52.446;-1.930;2022-07-23T02:18:07;13.02;;;10.72;;
60641;SDS011;46837;52.446;-1.930;2022-07-23T02:19:07;12.80;;;8.98;;
60641;SDS011;46837;52.446;-1.930;2022-07-23T02:20:07;15.02;;;9.54;;
60641;SDS011;46837;52.446;-1.930;2022-07-23T02:21:07;14.42;;;10.78;;
60641;SDS011;46837;52.446;-1.930;2022-07-23T02:22:07;11.04;;;9.06;;
60641;SDS011;46837;52.446;-1.930;2022-07-23T02:23:07;19.44;;;9.94;;
60641;SDS011;46837;52.446;-1.930;2022-07-23T02:24:07;11.80;;;9.08;;
60641;SDS011;46837;52.446;-1.930;2022-07-23T02:25:07;12.50;;;9.06;;
60641;SDS011;46837;52.446;-1.930;2022-07-23T02:26:07;11.18;;;9.36;;
60641;SDS011;46837;52.446;-1.930;2022-07-23T02:27:07;12.24;;;8.96;;
60641;SDS011;46837;52.446;-1.930;2022-07-23T02:28:07;15.36;;;8.70;;
60641;SDS011;46837;52.446;-1.930;2022-07-23T02:29:07;12.06;;;8.30;;
60641;SDS011;46837;52.446;-1.930;2022-07-23T02:30:07;20.64;;;9.72;;
60641;SDS011;46837;52.446;-1.930;2022-07-23T02:31:07;9.98;;;8.98;;
60641;SDS011;46837;52.446;-1.930;2022-07-23T02:32:07;13.94;;;8.50;;
60641;SDS011;46837;52.446;-1.930;2022-07-23T02:33:07;16.58;;;8.90;;
60641;SDS011;46837;52.446;-1.930;2022-07-23T02:34:07;8.06;;;7.24;;
60641;SDS011;46837;52.446;-1.930;2022-07-23T02:35:07;9.56;;;7.64;;
60641;SDS011;46837;52.446;-1.930;2022-07-23T02:36:07;8.16;;;7.32;;
60641;SDS011;46837;52.446;-1.930;2022-07-23T02:37:07;12.82;;;7.54;;
60641;SDS011;46837;52.446;-1.930;2022-07-23T02:38:07;12.48;;;8.20;;
60641;SDS011;46837;52.446;-1.930;2022-07-23T02:39:07;12.32;;;9.20;;
60641;SDS011;46837;52.446;-1.930;2022-07-23T02:40:07;13.00;;;9.64;;
60641;SDS011;46837;52.446;-1.930;2022-07-23T02:41:07;12.30;;;8.98;;
60641;SDS011;46837;52.446;-1.930;2022-07-23T02:42:07;13.12;;;8.80;;
60641;SDS011;46837;52.446;-1.930;2022-07-23T02:43:07;13.12;;;8.96;;
60641;SDS011;46837;52.446;-1.930;2022-07-23T02:44:07;13.28;;;9.42;;
60641;SDS011;46837;52.446;-1.930;2022-07-23T02:45:07;15.86;;;9.82;;
60641;SDS011;46837;52.446;-1.930;2022-07-23T02:46:07;12.84;;;9.54;;
60641;SDS011;46837;52.446;-1.930;2022-07-23T02:47:07;10.40;;;9.14;;
60641;SDS011;46837;52.446;-1.930;2022-07-23T02:48:07;15.12;;;10.32;;
60641;SDS011;46837;52.446;-1.930;2022-07-23T02:49:07;22.54;;;10.38;;
60641;SDS011;46837;52.446;-1.930;2022-07-23T02:50:07;18.14;;;11.06;;
60641;SDS011;46837;52.446;-1.930;2022-07-23T02:51:07;14.34;;;10.56;;
60641;SDS011;46837;52.446;-1.930;2022-07-23T02:52:07;17.56;;;9.64;;
60641;SDS011;46837;52.446;-1.930;2022-07-23T02:53:07;13.58;;;10.24;;
60641;SDS011;46837;52.446;-1.930;2022-07-23T02:54:07;15.96;;;10.94;;
60641;SDS011;46837;52.446;-1.930;2022-07-23T02:55:07;14.58;;;10.58;;
60641;SDS011;46837;52.446;-1.930;2022-07-23T02:56:07;12.26;;;8.92;;
60641;SDS011;46837;52.446;-1.930;2022-07-23T02:57:07;13.08;;;10.28;;
60641;SDS011;46837;52.446;-1.930;2022-07-23T02:58:07;23.94;;;11.52;;
60641;SDS011;46837;52.446;-1.930;2022-07-23T02:59:07;14.44;;;11.20;;
60641;SDS011;46837;52.446;-1.930;2022-07-23T03:00:07;20.08;;;11.32;;
60641;SDS011;46837;52.446;-1.930;2022-07-23T03:01:07;11.46;;;9.66;;
60641;SDS011;46837;52.446;-1.930;2022-07-23T03:02:07;16.72;;;10.76;;
60641;SDS011;46837;52.446;-1.930;2022-07-23T03:03:07;17.52;;;11.30;;
60641;SDS011;46837;52.446;-1.930;2022-07-23T03:04:07;18.52;;;12.30;;
60641;SDS011;46837;52.446;-1.930;2022-07-23T03:05:07;16.56;;;11.02;;
60641;SDS011;46837;52.446;-1.930;2022-07-23T03:06:07;21.62;;;11.60;;
60641;SDS011;46837;52.446;-1.930;2022-07-23T03:07:07;12.06;;;9.80;;
60641;SDS011;46837;52.446;-1.930;2022-07-23T03:08:07;12.40;;;10.26;;
60641;SDS011;46837;52.446;-1.930;2022-07-23T03:09:07;15.64;;;10.86;;
60641;SDS011;46837;52.446;-1.930;2022-07-23T03:10:07;17.84;;;11.54;;
60641;SDS011;46837;52.446;-1.930;2022-07-23T03:11:11;17.58;;;11.40;;
60641;SDS011;46837;52.446;-1.930;2022-07-23T03:12:07;14.84;;;10.28;;
60641;SDS011;46837;52.446;-1.930;2022-07-23T03:13:07;18.04;;;12.04;;
60641;SDS011;46837;52.446;-1.930;2022-07-23T03:14:07;12.08;;;9.64;;
60641;SDS011;46837;52.446;-1.930;2022-07-23T03:15:07;14.80;;;11.04;;
60641;SDS011;46837;52.446;-1.930;2022-07-23T03:16:07;17.56;;;10.56;;
60641;SDS011;46837;52.446;-1.930;2022-07-23T03:17:07;13.56;;;9.78;;
60641;SDS011;46837;52.446;-1.930;2022-07-23T03:18:07;16.56;;;9.98;;
60641;SDS011;46837;52.446;-1.930;2022-07-23T03:19:07;16.04;;;9.64;;
60641;SDS011;46837;52.446;-1.930;2022-07-23T03:20:07;11.92;;;10.16;;
60641;SDS011;46837;52.446;-1.930;2022-07-23T03:21:07;11.04;;;9.66;;
60641;SDS011;46837;52.446;-1.930;2022-07-23T03:22:07;22.24;;;10.02;;
60641;SDS011;46837;52.446;-1.930;2022-07-23T03:23:07;16.70;;;10.42;;
60641;SDS011;46837;52.446;-1.930;2022-07-23T03:24:07;13.36;;;9.90;;
60641;SDS011;46837;52.446;-1.930;2022-07-23T03:25:07;18.96;;;11.30;;
60641;SDS011;46837;52.446;-1.930;2022-07-23T03:26:07;11.90;;;9.62;;
60641;SDS011;46837;52.446;-1.930;2022-07-23T03:27:07;13.02;;;11.00;;
60641;SDS011;46837;52.446;-1.930;2022-07-23T03:28:07;16.04;;;10.00;;
60641;SDS011;46837;52.446;-1.930;2022-07-23T03:29:07;14.56;;;10.98;;
60641;SDS011;46837;52.446;-1.930;2022-07-23T03:30:07;14.74;;;11.16;;
60641;SDS011;46837;52.446;-1.930;2022-07-23T03:31:07;17.06;;;9.92;;
60641;SDS011;46837;52.446;-1.930;2022-07-23T03:32:07;16.48;;;10.54;;
60641;SDS011;46837;52.446;-1.930;2022-07-23T03:33:07;18.50;;;10.70;;
60641;SDS011;46837;52.446;-1.930;2022-07-23T03:34:07;14.32;;;11.08;;
60641;SDS011;46837;52.446;-1.930;2022-07-23T03:35:07;18.94;;;10.40;;
60641;SDS011;46837;52.446;-1.930;2022-07-23T03:36:07;12.28;;;11.00;;
60641;SDS011;46837;52.446;-1.930;2022-07-23T03:37:07;14.14;;;10.70;;
60641;SDS011;46837;52.446;-1.930;2022-07-23T03:38:07;14.86;;;10.22;;
60641;SDS011;46837;52.446;-1.930;2022-07-23T03:39:07;16.78;;;11.14;;
60641;SDS011;46837;52.446;-1.930;2022-07-23T03:40:07;12.96;;;10.06;;
60641;SDS011;46837;52.446;-1.930;2022-07-23T03:41:07;22.86;;;12.50;;
60641;SDS011;46837;52.446;-1.930;2022-07-23T03:42:07;18.36;;;10.84;;
60641;SDS011;46837;52.446;-1.930;2022-07-23T03:43:07;14.40;;;11.08;;
60641;SDS011;46837;52.446;-1.930;2022-07-23T03:44:07;13.84;;;11.56;;
60641;SDS011;46837;52.446;-1.930;2022-07-23T03:45:07;28.44;;;11.74;;
60641;SDS011;46837;52.446;-1.930;2022-07-23T03:46:07;13.56;;;10.78;;
60641;SDS011;46837;52.446;-1.930;2022-07-23T03:47:07;17.12;;;11.32;;
60641;SDS011;46837;52.446;-1.930;2022-07-23T03:48:07;18.28;;;10.96;;
60641;SDS011;46837;52.446;-1.930;2022-07-23T03:49:07;11.70;;;10.22;;
60641;SDS011;46837;52.446;-1.930;2022-07-23T03:50:07;11.98;;;10.14;;
60641;SDS011;46837;52.446;-1.930;2022-07-23T03:51:07;19.06;;;11.60;;
60641;SDS011;46837;52.446;-1.930;2022-07-23T03:52:07;17.18;;;11.00;;
60641;SDS011;46837;52.446;-1.930;2022-07-23T03:53:07;12.90;;;9.74;;
60641;SDS011;46837;52.446;-1.930;2022-07-23T03:54:07;14.96;;;11.56;;
60641;SDS011;46837;52.446;-1.930;2022-07-23T03:55:07;13.94;;;10.12;;
60641;SDS011;46837;52.446;-1.930;2022-07-23T03:56:07;19.92;;;11.42;;
60641;SDS011;46837;52.446;-1.930;2022-07-23T03:57:07;23.12;;;11.22;;
60641;SDS011;46837;52.446;-1.930;2022-07-23T03:58:07;15.16;;;10.58;;
60641;SDS011;46837;52.446;-1.930;2022-07-23T03:59:07;14.34;;;10.80;;
60641;SDS011;46837;52.446;-1.930;2022-07-23T04:00:07;14.44;;;11.68;;
60641;SDS011;46837;52.446;-1.930;2022-07-23T04:01:07;19.18;;;11.20;;
60641;SDS011;46837;52.446;-1.930;2022-07-23T04:02:07;17.38;;;10.54;;
60641;SDS011;46837;52.446;-1.930;2022-07-23T04:03:07;15.56;;;11.02;;
60641;SDS011;46837;52.446;-1.930;2022-07-23T04:04:07;13.04;;;11.16;;
60641;SDS011;46837;52.446;-1.930;2022-07-23T04:05:07;15.26;;;11.54;;
60641;SDS011;46837;52.446;-1.930;2022-07-23T04:06:07;14.58;;;10.90;;
60641;SDS011;46837;52.446;-1.930;2022-07-23T04:07:07;18.90;;;10.68;;
60641;SDS011;46837;52.446;-1.930;2022-07-23T04:08:07;15.76;;;10.26;;
60641;SDS011;46837;52.446;-1.930;2022-07-23T04:09:07;13.14;;;9.92;;
60641;SDS011;46837;52.446;-1.930;2022-07-23T04:10:07;13.84;;;10.42;;
60641;SDS011;46837;52.446;-1.930;2022-07-23T04:11:07;11.34;;;10.08;;
60641;SDS011;46837;52.446;-1.930;2022-07-23T04:12:07;16.76;;;11.78;;
60641;SDS011;46837;52.446;-1.930;2022-07-23T04:13:07;18.32;;;11.10;;
60641;SDS011;46837;52.446;-1.930;2022-07-23T04:14:07;21.22;;;12.02;;
60641;SDS011;46837;52.446;-1.930;2022-07-23T04:15:07;15.26;;;10.58;;
60641;SDS011;46837;52.446;-1.930;2022-07-23T04:16:07;16.58;;;10.06;;
60641;SDS011;46837;52.446;-1.930;2022-07-23T04:17:07;15.64;;;11.46;;
60641;SDS011;46837;52.446;-1.930;2022-07-23T04:18:07;12.64;;;10.06;;
60641;SDS011;46837;52.446;-1.930;2022-07-23T04:19:07;13.94;;;10.82;;
60641;SDS011;46837;52.446;-1.930;2022-07-23T04:20:07;18.18;;;11.68;;
60641;SDS011;46837;52.446;-1.930;2022-07-23T04:21:07;13.76;;;11.34;;
60641;SDS011;46837;52.446;-1.930;2022-07-23T04:22:07;17.92;;;11.94;;
60641;SDS011;46837;52.446;-1.930;2022-07-23T04:23:07;18.68;;;11.14;;
60641;SDS011;46837;52.446;-1.930;2022-07-23T04:24:07;11.20;;;9.20;;
60641;SDS011;46837;52.446;-1.930;2022-07-23T04:25:07;20.42;;;12.20;;
60641;SDS011;46837;52.446;-1.930;2022-07-23T04:26:07;12.34;;;10.72;;
60641;SDS011;46837;52.446;-1.930;2022-07-23T04:27:07;20.22;;;11.48;;
60641;SDS011;46837;52.446;-1.930;2022-07-23T04:28:07;16.54;;;11.06;;
60641;SDS011;46837;52.446;-1.930;2022-07-23T04:29:07;19.56;;;10.68;;
60641;SDS011;46837;52.446;-1.930;2022-07-23T04:30:07;16.80;;;11.06;;
60641;SDS011;46837;52.446;-1.930;2022-07-23T04:31:07;14.48;;;11.18;;
60641;SDS011;46837;52.446;-1.930;2022-07-23T04:32:07;12.64;;;9.78;;
60641;SDS011;46837;52.446;-1.930;2022-07-23T04:33:07;22.82;;;12.40;;
60641;SDS011;46837;52.446;-1.930;2022-07-23T04:34:07;13.82;;;10.28;;
60641;SDS011;46837;52.446;-1.930;2022-07-23T04:35:07;13.36;;;10.68;;
60641;SDS011;46837;52.446;-1.930;2022-07-23T04:36:07;16.28;;;10.48;;
60641;SDS011;46837;52.446;-1.930;2022-07-23T04:37:07;18.12;;;11.72;;
60641;SDS011;46837;52.446;-1.930;2022-07-23T04:38:07;14.48;;;10.62;;
60641;SDS011;46837;52.446;-1.930;2022-07-23T04:39:07;17.48;;;11.26;;
60641;SDS011;46837;52.446;-1.930;2022-07-23T04:40:07;20.00;;;11.36;;
60641;SDS011;46837;52.446;-1.930;2022-07-23T04:41:07;17.54;;;10.16;;
60641;SDS011;46837;52.446;-1.930;2022-07-23T04:42:07;20.18;;;11.28;;
60641;SDS011;46837;52.446;-1.930;2022-07-23T04:43:07;16.92;;;11.04;;
60641;SDS011;46837;52.446;-1.930;2022-07-23T04:44:07;15.58;;;10.94;;
60641;SDS011;46837;52.446;-1.930;2022-07-23T04:45:07;16.22;;;10.78;;
60641;SDS011;46837;52.446;-1.930;2022-07-23T04:46:07;21.52;;;10.68;;
60641;SDS011;46837;52.446;-1.930;2022-07-23T04:47:07;19.68;;;11.18;;
60641;SDS011;46837;52.446;-1.930;2022-07-23T04:48:07;13.18;;;9.80;;
60641;SDS011;46837;52.446;-1.930;2022-07-23T04:49:07;16.20;;;10.00;;
60641;SDS011;46837;52.446;-1.930;2022-07-23T04:50:07;14.54;;;10.34;;
60641;SDS011;46837;52.446;-1.930;2022-07-23T04:51:07;15.78;;;10.50;;
60641;SDS011;46837;52.446;-1.930;2022-07-23T04:52:07;11.92;;;10.64;;
60641;SDS011;46837;52.446;-1.930;2022-07-23T04:53:07;13.52;;;10.86;;
60641;SDS011;46837;52.446;-1.930;2022-07-23T04:54:07;26.44;;;12.16;;
60641;SDS011;46837;52.446;-1.930;2022-07-23T04:55:07;17.04;;;11.28;;
60641;SDS011;46837;52.446;-1.930;2022-07-23T04:56:07;16.36;;;11.22;;
60641;SDS011;46837;52.446;-1.930;2022-07-23T04:57:07;18.46;;;11.92;;
60641;SDS011;46837;52.446;-1.930;2022-07-23T04:58:07;17.16;;;10.96;;
60641;SDS011;46837;52.446;-1.930;2022-07-23T04:59:07;21.80;;;11.88;;
60641;SDS011;46837;52.446;-1.930;2022-07-23T05:00:07;17.08;;;11.52;;
60641;SDS011;46837;52.446;-1.930;2022-07-23T05:01:07;14.70;;;11.32;;
60641;SDS011;46837;52.446;-1.930;2022-07-23T05:02:07;17.80;;;12.88;;
60641;SDS011;46837;52.446;-1.930;2022-07-23T05:03:07;14.16;;;11.86;;
60641;SDS011;46837;52.446;-1.930;2022-07-23T05:04:07;17.08;;;12.60;;
60641;SDS011;46837;52.446;-1.930;2022-07-23T05:05:07;17.02;;;11.64;;
60641;SDS011;46837;52.446;-1.930;2022-07-23T05:06:07;22.92;;;11.70;;
60641;SDS011;46837;52.446;-1.930;2022-07-23T05:07:07;14.98;;;11.76;;
60641;SDS011;46837;52.446;-1.930;2022-07-23T05:08:07;27.54;;;13.14;;
60641;SDS011;46837;52.446;-1.930;2022-07-23T05:09:07;23.36;;;13.04;;
60641;SDS011;46837;52.446;-1.930;2022-07-23T05:10:07;20.90;;;12.64;;
60641;SDS011;46837;52.446;-1.930;2022-07-23T05:11:07;13.58;;;10.96;;
60641;SDS011;46837;52.446;-1.930;2022-07-23T05:12:07;17.08;;;12.30;;
60641;SDS011;46837;52.446;-1.930;2022-07-23T05:13:07;18.62;;;12.16;;
60641;SDS011;46837;52.446;-1.930;2022-07-23T05:14:07;15.30;;;12.52;;
60641;SDS011;46837;52.446;-1.930;2022-07-23T05:15:07;16.16;;;12.40;;
60641;SDS011;46837;52.446;-1.930;2022-07-23T05:16:07;15.10;;;11.72;;
60641;SDS011;46837;52.446;-1.930;2022-07-23T05:17:07;19.60;;;13.50;;
60641;SDS011;46837;52.446;-1.930;2022-07-23T05:18:07;18.36;;;13.92;;
60641;SDS011;46837;52.446;-1.930;2022-07-23T05:19:07;20.22;;;13.78;;
60641;SDS011;46837;52.446;-1.930;2022-07-23T05:20:07;21.66;;;13.94;;
60641;SDS011;46837;52.446;-1.930;2022-07-23T05:21:07;25.30;;;14.98;;
60641;SDS011;46837;52.446;-1.930;2022-07-23T05:22:07;20.58;;;14.78;;
60641;SDS011;46837;52.446;-1.930;2022-07-23T05:23:07;22.24;;;14.30;;
60641;SDS011;46837;52.446;-1.930;2022-07-23T05:24:07;17.88;;;13.24;;
60641;SDS011;46837;52.446;-1.930;2022-07-23T05:25:07;17.64;;;13.84;;
60641;SDS011;46837;52.446;-1.930;2022-07-23T05:26:07;20.54;;;14.44;;
60641;SDS011;46837;52.446;-1.930;2022-07-23T05:27:07;24.66;;;14.26;;
60641;SDS011;46837;52.446;-1.930;2022-07-23T05:28:07;21.80;;;14.88;;
60641;SDS011;46837;52.446;-1.930;2022-07-23T05:29:07;18.40;;;13.80;;
60641;SDS011;46837;52.446;-1.930;2022-07-23T05:30:07;22.70;;;13.50;;
60641;SDS011;46837;52.446;-1.930;2022-07-23T05:31:07;18.54;;;12.04;;
60641;SDS011;46837;52.446;-1.930;2022-07-23T05:32:07;14.82;;;12.02;;
60641;SDS011;46837;52.446;-1.930;2022-07-23T05:33:07;13.32;;;12.00;;
60641;SDS011;46837;52.446;-1.930;2022-07-23T05:34:07;19.10;;;13.34;;
60641;SDS011;46837;52.446;-1.930;2022-07-23T05:35:07;21.34;;;12.92;;
60641;SDS011;46837;52.446;-1.930;2022-07-23T05:36:07;20.82;;;13.20;;
60641;SDS011;46837;52.446;-1.930;2022-07-23T05:37:07;21.94;;;13.18;;
60641;SDS011;46837;52.446;-1.930;2022-07-23T05:38:07;17.58;;;11.38;;
60641;SDS011;46837;52.446;-1.930;2022-07-23T05:39:07;20.36;;;11.56;;
60641;SDS011;46837;52.446;-1.930;2022-07-23T05:40:08;20.34;;;12.12;;
60641;SDS011;46837;52.446;-1.930;2022-07-23T05:41:07;29.28;;;12.58;;
60641;SDS011;46837;52.446;-1.930;2022-07-23T05:42:07;18.40;;;11.66;;
60641;SDS011;46837;52.446;-1.930;2022-07-23T05:43:07;17.28;;;12.98;;
60641;SDS011;46837;52.446;-1.930;2022-07-23T05:44:07;18.82;;;12.34;;
60641;SDS011;46837;52.446;-1.930;2022-07-23T05:45:07;14.96;;;11.24;;
60641;SDS011;46837;52.446;-1.930;2022-07-23T05:46:07;16.96;;;10.38;;
60641;SDS011;46837;52.446;-1.930;2022-07-23T05:47:07;21.72;;;11.68;;